createdAt,value
2022-12-11T00:00:43.768Z,-1.88
2022-12-11T00:03:15.919Z,-2.04
2022-12-11T00:05:46.054Z,-1.86
2022-12-11T00:08:15.658Z,-1.77
2022-12-11T00:10:49.761Z,-1.74
2022-12-11T00:13:19.512Z,-1.67
2022-12-11T00:15:47.863Z,-1.72
2022-12-11T00:18:16.310Z,-1.71
2022-12-11T00:20:44.673Z,-2.12
2022-12-11T00:23:13.396Z,-1.97
2022-12-11T00:25:44.059Z,-2.00
2022-12-11T00:28:12.864Z,-1.77
2022-12-11T00:30:43.921Z,-1.82
2022-12-11T00:33:13.132Z,-1.74
2022-12-11T00:35:41.897Z,-1.73
2022-12-11T00:38:10.988Z,-1.69
2022-12-11T00:40:39.655Z,-1.87
2022-12-11T00:43:08.101Z,-1.64
2022-12-11T00:45:38.299Z,-1.65
2022-12-11T00:48:09.120Z,-1.66
2022-12-11T00:50:37.795Z,-1.81
2022-12-11T00:53:07.887Z,-1.63
2022-12-11T00:55:39.175Z,-1.75
2022-12-11T00:58:08.169Z,-1.74
2022-12-11T01:00:36.567Z,-1.73
2022-12-11T01:03:05.485Z,-1.72
2022-12-11T01:05:35.458Z,-1.94
2022-12-11T01:08:04.238Z,-1.72
2022-12-11T01:10:31.795Z,-1.64
2022-12-11T01:13:02.264Z,-1.74
2022-12-11T01:15:32.461Z,-1.72
2022-12-11T01:18:00.902Z,-1.59
2022-12-11T01:20:29.710Z,-1.59
2022-12-11T01:23:01.223Z,-1.55
2022-12-11T01:25:30.747Z,-1.59
2022-12-11T01:27:59.092Z,-1.78
2022-12-11T01:30:28.363Z,-1.84
2022-12-11T01:32:56.736Z,-1.62
2022-12-11T01:35:25.255Z,-1.59
2022-12-11T01:37:53.715Z,-1.56
2022-12-11T01:40:24.310Z,-1.50
2022-12-11T01:42:52.722Z,-1.45
2022-12-11T01:45:38.941Z,-1.49
2022-12-11T01:48:11.024Z,-1.60
2022-12-11T01:50:43.928Z,-1.63
2022-12-11T01:53:18.907Z,-1.85
2022-12-11T01:55:50.096Z,-1.63
2022-12-11T01:58:20.103Z,-1.59
2022-12-11T02:00:48.783Z,-1.58
2022-12-11T02:03:17.175Z,-1.59
2022-12-11T02:05:45.670Z,-2.03
2022-12-11T02:08:14.867Z,-1.51
2022-12-11T02:11:02.849Z,-1.52
2022-12-11T02:13:40.949Z,-1.55
2022-12-11T02:16:18.511Z,-1.54
2022-12-11T02:18:55.244Z,-1.55
2022-12-11T02:21:28.335Z,-1.57
2022-12-11T02:24:23.581Z,-1.58
2022-12-11T02:27:20.028Z,-1.59
2022-12-11T02:29:55.585Z,-1.52
2022-12-11T02:32:28.485Z,-1.65
2022-12-11T02:35:01.555Z,-1.75
2022-12-11T02:37:33.890Z,-1.58
2022-12-11T02:40:06.025Z,-1.62
2022-12-11T02:42:35.651Z,-1.56
2022-12-11T02:45:09.052Z,-1.58
2022-12-11T02:47:38.800Z,-1.68
2022-12-11T02:50:12.683Z,-1.79
2022-12-11T02:52:42.916Z,-1.61
2022-12-11T02:55:14.114Z,-1.54
2022-12-11T02:57:47.150Z,-1.55
2022-12-11T03:00:19.089Z,-1.56
2022-12-11T03:02:47.756Z,-1.55
2022-12-11T03:05:16.956Z,-1.55
2022-12-11T03:07:46.550Z,-1.50
2022-12-11T03:10:19.172Z,-1.70
2022-12-11T03:12:53.734Z,-1.48
2022-12-11T03:15:33.190Z,-1.71
2022-12-11T03:18:10.276Z,-1.69
2022-12-11T03:20:44.433Z,-1.70
2022-12-11T03:23:23.081Z,-1.75
2022-12-11T03:25:56.807Z,-2.55
2022-12-11T03:28:30.529Z,-1.84
2022-12-11T03:31:06.853Z,-2.03
2022-12-11T03:33:38.942Z,-1.88
2022-12-11T03:36:11.691Z,-1.90
2022-12-11T03:38:49.315Z,-1.92
2022-12-11T03:41:20.582Z,-1.95
2022-12-11T03:43:52.804Z,-1.96
2022-12-11T03:46:25.931Z,-2.27
2022-12-11T03:48:57.965Z,-2.00
2022-12-11T03:51:27.469Z,-1.98
2022-12-11T03:53:57.450Z,-2.08
2022-12-11T03:56:28.768Z,-2.02
2022-12-11T03:58:57.380Z,-2.05
2022-12-11T04:01:27.248Z,-2.13
2022-12-11T04:03:55.849Z,-2.12
2022-12-11T04:06:24.329Z,-2.52
2022-12-11T04:08:52.756Z,-2.26
2022-12-11T04:11:36.254Z,-2.20
2022-12-11T04:14:23.594Z,-2.40
2022-12-11T04:16:54.262Z,-2.31
2022-12-11T04:19:40.891Z,-2.53
2022-12-11T04:22:28.138Z,-2.44
2022-12-11T04:24:56.490Z,-2.43
2022-12-11T04:27:42.859Z,-2.70
2022-12-11T04:30:15.052Z,-2.49
2022-12-11T04:32:44.960Z,-2.63
2022-12-11T04:35:14.342Z,-2.50
2022-12-11T04:37:43.405Z,-2.68
2022-12-11T04:40:14.754Z,-2.66
2022-12-11T04:42:43.136Z,-2.58
2022-12-11T04:45:12.961Z,-4.30
2022-12-11T04:47:42.977Z,-2.45
2022-12-11T04:50:15.272Z,-2.51
2022-12-11T04:52:43.895Z,-2.30
2022-12-11T04:55:13.721Z,-2.30
2022-12-11T04:57:42.773Z,-2.28
2022-12-11T05:00:13.796Z,-2.57
2022-12-11T05:02:43.538Z,-2.76
2022-12-11T05:05:14.729Z,-2.38
2022-12-11T05:07:43.687Z,-2.37
2022-12-11T05:10:12.284Z,-2.35
2022-12-11T05:12:40.776Z,-2.32
2022-12-11T05:15:10.218Z,-2.30
2022-12-11T05:17:38.987Z,-2.51
2022-12-11T05:20:08.423Z,-2.22
2022-12-11T05:22:39.505Z,-2.25
2022-12-11T05:25:09.524Z,-2.32
2022-12-11T05:27:38.247Z,-2.44
2022-12-11T05:30:08.221Z,-2.31
2022-12-11T05:32:36.894Z,-2.33
2022-12-11T05:35:05.697Z,-2.30
2022-12-11T05:37:35.218Z,-2.52
2022-12-11T05:40:06.674Z,-2.49
2022-12-11T05:42:35.347Z,-2.35
2022-12-11T05:45:03.825Z,-2.37
2022-12-11T05:47:33.090Z,-2.78
2022-12-11T05:50:01.627Z,-2.41
2022-12-11T05:52:30.100Z,-2.38
2022-12-11T05:54:58.509Z,-2.49
2022-12-11T05:57:28.364Z,-2.48
2022-12-11T05:59:56.751Z,-2.50
2022-12-11T06:02:25.574Z,-2.51
2022-12-11T06:04:54.139Z,-2.46
2022-12-11T06:07:22.591Z,-2.46
2022-12-11T06:09:51.065Z,-2.43
2022-12-11T06:12:19.402Z,-2.45
2022-12-11T06:14:49.516Z,-2.42
2022-12-11T06:17:17.955Z,-2.63
2022-12-11T06:19:46.368Z,-2.43
2022-12-11T06:22:14.754Z,-2.59
2022-12-11T06:24:43.525Z,-2.72
2022-12-11T06:27:11.876Z,-2.86
2022-12-11T06:29:40.386Z,-2.68
2022-12-11T06:32:10.583Z,-2.70
2022-12-11T06:34:39.062Z,-3.01
2022-12-11T06:37:07.445Z,-2.74
2022-12-11T06:39:35.763Z,-2.73
2022-12-11T06:42:04.076Z,-3.00
2022-12-11T06:44:32.487Z,-2.71
2022-12-11T06:47:00.870Z,-2.73
2022-12-11T06:49:30.648Z,-2.71
2022-12-11T06:51:59.025Z,-2.66
2022-12-11T06:54:28.171Z,-2.67
2022-12-11T06:56:56.675Z,-2.64
2022-12-11T06:59:26.383Z,-2.63
2022-12-11T07:01:54.793Z,-2.65
2022-12-11T07:04:25.105Z,-2.65
2022-12-11T07:06:55.381Z,-2.60
2022-12-11T07:09:24.158Z,-2.60
2022-12-11T07:11:52.767Z,-2.56
2022-12-11T07:14:21.410Z,-2.72
2022-12-11T07:16:49.788Z,-2.56
2022-12-11T07:19:18.668Z,-2.62
2022-12-11T07:21:46.944Z,-2.59
2022-12-11T07:24:17.236Z,-2.88
2022-12-11T07:26:45.657Z,-2.56
2022-12-11T07:29:14.013Z,-2.53
2022-12-11T07:31:42.449Z,-2.51
2022-12-11T07:34:14.664Z,-2.51
2022-12-11T07:36:43.705Z,-2.77
2022-12-11T07:39:13.501Z,-2.51
2022-12-11T07:41:43.300Z,-2.55
2022-12-11T07:44:12.170Z,-2.55
2022-12-11T07:46:41.892Z,-2.49
2022-12-11T07:49:10.324Z,-2.88
2022-12-11T07:51:39.489Z,-2.49
2022-12-11T07:54:10.849Z,-2.45
2022-12-11T07:56:41.917Z,-2.40
2022-12-11T07:59:14.345Z,-2.52
2022-12-11T08:01:43.456Z,-2.37
2022-12-11T08:04:15.913Z,-2.35
2022-12-11T08:06:44.851Z,-2.55
2022-12-11T08:09:21.082Z,-2.36
2022-12-11T08:11:50.126Z,-2.35
2022-12-11T08:14:20.111Z,-2.33
2022-12-11T08:16:49.098Z,-2.29
2022-12-11T08:19:18.573Z,-2.22
2022-12-11T08:21:47.013Z,-2.23
2022-12-11T08:24:16.599Z,-2.69
2022-12-11T08:26:44.905Z,-2.26
2022-12-11T08:29:13.196Z,-2.30
2022-12-11T08:31:43.333Z,-2.28
2022-12-11T08:34:14.284Z,-2.53
2022-12-11T08:36:44.082Z,-2.33
2022-12-11T08:39:12.434Z,-2.32
2022-12-11T08:41:40.846Z,-2.41
2022-12-11T08:44:16.351Z,-2.33
2022-12-11T08:46:48.278Z,-2.45
2022-12-11T08:49:16.625Z,-2.59
2022-12-11T08:51:45.414Z,-2.84
2022-12-11T08:54:13.674Z,-2.75
2022-12-11T08:56:42.240Z,-2.90
2022-12-11T08:59:11.098Z,-2.98
2022-12-11T09:01:39.794Z,-4.00
2022-12-11T09:04:09.728Z,-3.39
2022-12-11T09:06:37.989Z,-3.04
2022-12-11T09:09:06.738Z,-3.07
2022-12-11T09:11:38.008Z,-3.08
2022-12-11T09:14:08.258Z,-3.06
2022-12-11T09:16:40.948Z,-3.09
2022-12-11T09:19:14.422Z,-3.05
2022-12-11T09:21:44.107Z,-3.45
2022-12-11T09:24:13.997Z,-3.11
2022-12-11T09:26:42.692Z,-3.22
2022-12-11T09:29:13.737Z,-2.95
2022-12-11T09:31:42.526Z,-2.81
2022-12-11T09:34:14.717Z,-2.76
2022-12-11T09:36:44.460Z,-2.68
2022-12-11T09:39:13.869Z,-2.66
2022-12-11T09:41:54.884Z,-2.63
2022-12-11T09:44:36.211Z,-2.75
2022-12-11T09:47:05.188Z,-2.77
2022-12-11T09:49:41.351Z,-2.71
2022-12-11T09:52:15.580Z,-2.67
2022-12-11T09:54:50.600Z,-2.60
2022-12-11T09:57:31.056Z,-2.77
2022-12-11T10:00:15.432Z,-2.56
2022-12-11T10:03:11.537Z,-2.74
2022-12-11T10:05:48.967Z,-2.53
2022-12-11T10:08:23.153Z,-2.62
2022-12-11T10:11:00.413Z,-2.61
2022-12-11T10:13:37.983Z,-2.65
2022-12-11T10:16:16.943Z,-2.49
2022-12-11T10:18:45.824Z,-2.70
2022-12-11T10:21:18.332Z,-2.57
2022-12-11T10:23:54.987Z,-2.56
2022-12-11T10:26:24.488Z,-2.59
2022-12-11T10:28:53.281Z,-2.50
2022-12-11T10:31:26.506Z,-2.51
2022-12-11T10:34:01.669Z,-2.35
2022-12-11T10:36:33.131Z,-2.41
2022-12-11T10:39:02.743Z,-2.45
2022-12-11T10:41:39.872Z,-2.44
2022-12-11T10:44:18.544Z,-2.78
2022-12-11T10:46:48.425Z,-2.40
2022-12-11T10:49:27.268Z,-2.46
2022-12-11T10:52:01.462Z,-2.43
2022-12-11T10:54:38.380Z,-2.40
2022-12-11T10:57:10.206Z,-3.28
2022-12-11T10:59:42.566Z,-2.26
2022-12-11T11:02:23.393Z,-2.19
2022-12-11T11:04:52.729Z,-2.13
2022-12-11T11:07:25.397Z,-2.11
2022-12-11T11:10:16.515Z,-2.08
2022-12-11T11:12:46.693Z,-2.24
2022-12-11T11:15:16.760Z,-2.13
2022-12-11T11:17:54.637Z,-2.16
2022-12-11T11:20:26.265Z,-2.18
2022-12-11T11:22:58.376Z,-2.12
2022-12-11T11:25:29.020Z,-2.12
2022-12-11T11:27:59.422Z,-2.08
2022-12-11T11:30:30.296Z,-2.44
2022-12-11T11:33:02.416Z,-2.14
2022-12-11T11:35:32.675Z,-2.02
2022-12-11T11:38:19.588Z,-2.00
2022-12-11T11:40:57.047Z,-2.01
2022-12-11T11:43:37.092Z,-1.88
2022-12-11T11:46:10.428Z,-2.22
2022-12-11T11:48:47.240Z,-1.94
2022-12-11T11:51:20.204Z,-1.96
2022-12-11T11:53:53.045Z,-2.00
2022-12-11T11:56:24.918Z,-1.93
2022-12-11T11:59:04.598Z,-1.88
2022-12-11T12:01:33.220Z,-2.26
2022-12-11T12:04:04.300Z,-2.16
2022-12-11T12:06:58.150Z,-1.89
2022-12-11T12:09:43.732Z,-1.90
2022-12-11T12:12:27.420Z,-1.92
2022-12-11T12:15:18.402Z,-1.94
2022-12-11T12:17:56.080Z,-2.00
2022-12-11T12:20:31.072Z,-2.12
2022-12-11T12:23:13.041Z,-2.26
2022-12-11T12:25:50.446Z,-2.31
2022-12-11T12:28:32.623Z,-2.33
2022-12-11T12:31:14.859Z,-2.34
2022-12-11T12:33:55.264Z,-2.35
2022-12-11T12:36:29.121Z,-2.52
2022-12-11T12:39:04.077Z,-2.47
2022-12-11T12:41:42.904Z,-2.78
2022-12-11T12:44:20.367Z,-2.40
2022-12-11T12:46:59.326Z,-2.34
2022-12-11T12:49:41.581Z,-2.34
2022-12-11T12:52:16.989Z,-2.37
2022-12-11T12:55:10.214Z,-2.41
2022-12-11T12:57:43.913Z,-2.37
2022-12-11T13:00:13.753Z,-2.36
2022-12-11T13:02:50.702Z,-2.36
2022-12-11T13:05:24.680Z,-2.51
2022-12-11T13:07:56.023Z,-2.46
2022-12-11T13:10:28.668Z,-2.51
2022-12-11T13:12:58.799Z,-2.60
2022-12-11T13:15:39.200Z,-2.46
2022-12-11T13:18:32.640Z,-2.47
2022-12-11T13:21:01.448Z,-2.38
2022-12-11T13:23:31.426Z,-2.33
2022-12-11T13:26:02.448Z,-2.53
2022-12-11T13:28:35.008Z,-2.41
2022-12-11T13:31:24.681Z,-2.41
2022-12-11T13:33:56.151Z,-2.64
2022-12-11T13:36:36.160Z,-2.45
2022-12-11T13:39:08.242Z,-2.63
2022-12-11T13:41:40.119Z,-2.40
2022-12-11T13:44:16.953Z,-2.43
2022-12-11T13:46:45.639Z,-2.49
2022-12-11T13:49:22.709Z,-2.51
2022-12-11T13:51:56.605Z,-2.55
2022-12-11T13:54:26.119Z,-2.57
2022-12-11T13:57:03.383Z,-2.51
2022-12-11T13:59:36.197Z,-2.78
2022-12-11T14:02:16.949Z,-2.57
2022-12-11T14:04:45.992Z,-2.68
2022-12-11T14:07:14.553Z,-2.55
2022-12-11T14:09:47.149Z,-2.57
2022-12-11T14:12:21.310Z,-2.77
2022-12-11T14:14:54.719Z,-2.65
2022-12-11T14:17:27.317Z,-2.87
2022-12-11T14:19:57.618Z,-2.97
2022-12-11T14:22:27.709Z,-2.76
2022-12-11T14:24:57.457Z,-2.77
2022-12-11T14:27:27.157Z,-2.78
2022-12-11T14:29:57.405Z,-2.98
2022-12-11T14:32:33.285Z,-2.84
2022-12-11T14:35:03.549Z,-2.99
2022-12-11T14:37:32.950Z,-2.88
2022-12-11T14:40:04.363Z,-2.78
2022-12-11T14:42:40.046Z,-2.80
2022-12-11T14:45:20.812Z,-3.10
2022-12-11T14:47:49.609Z,-3.00
2022-12-11T14:50:23.109Z,-3.04
2022-12-11T14:52:54.913Z,-3.03
2022-12-11T14:55:26.613Z,-3.13
2022-12-11T14:57:58.981Z,-3.01
2022-12-11T15:00:32.073Z,-3.11
2022-12-11T15:03:02.753Z,-3.03
2022-12-11T15:05:37.159Z,-3.03
2022-12-11T15:08:25.718Z,-3.00
2022-12-11T15:11:04.272Z,-3.27
2022-12-11T15:13:33.909Z,-2.99
2022-12-11T15:16:05.178Z,-2.99
2022-12-11T15:18:37.277Z,-2.98
2022-12-11T15:21:09.780Z,-2.95
2022-12-11T15:23:48.909Z,-2.93
2022-12-11T15:26:17.237Z,-2.94
2022-12-11T15:28:45.910Z,-2.93
2022-12-11T15:31:28.519Z,-2.91
2022-12-11T15:33:57.357Z,-2.94
2022-12-11T15:36:32.202Z,-2.90
2022-12-11T15:39:02.819Z,-2.94
2022-12-11T15:41:34.783Z,-2.97
2022-12-11T15:44:05.353Z,-3.00
2022-12-11T15:46:38.496Z,-3.04
2022-12-11T15:49:13.799Z,-3.02
2022-12-11T15:51:43.558Z,-3.36
2022-12-11T15:54:12.464Z,-3.12
2022-12-11T15:56:40.969Z,-3.54
2022-12-11T15:59:09.472Z,-3.22
2022-12-11T16:01:39.366Z,-3.15
2022-12-11T16:04:07.979Z,-3.21
2022-12-11T16:06:36.240Z,-3.19
2022-12-11T16:09:05.845Z,-3.60
2022-12-11T16:11:34.232Z,-3.32
2022-12-11T16:14:04.945Z,-3.17
2022-12-11T16:16:33.779Z,-3.19
2022-12-11T16:19:03.630Z,-3.19
2022-12-11T16:21:32.653Z,-3.17
2022-12-11T16:24:01.651Z,-3.35
2022-12-11T16:26:30.573Z,-3.27
2022-12-11T16:28:59.028Z,-3.25
2022-12-11T16:31:27.418Z,-3.11
2022-12-11T16:33:55.828Z,-3.11
2022-12-11T16:36:26.882Z,-3.12
2022-12-11T16:38:55.502Z,-3.12
2022-12-11T16:41:25.094Z,-3.17
2022-12-11T16:43:54.878Z,-3.25
2022-12-11T16:46:25.378Z,-3.24
2022-12-11T16:48:54.145Z,-3.26
2022-12-11T16:51:23.046Z,-3.27
2022-12-11T16:53:53.515Z,-3.25
2022-12-11T16:56:21.816Z,-3.22
2022-12-11T16:58:50.891Z,-3.18
2022-12-11T17:01:19.252Z,-3.20
2022-12-11T17:03:48.018Z,-3.49
2022-12-11T17:06:18.426Z,-3.21
2022-12-11T17:08:47.205Z,-3.23
2022-12-11T17:11:19.174Z,-3.28
2022-12-11T17:13:47.753Z,-3.33
2022-12-11T17:16:18.387Z,-3.34
2022-12-11T17:18:46.772Z,-3.36
2022-12-11T17:21:17.288Z,-3.34
2022-12-11T17:23:46.877Z,-3.26
2022-12-11T17:26:17.102Z,-3.50
2022-12-11T17:28:46.308Z,-3.42
2022-12-11T17:31:17.686Z,-3.37
2022-12-11T17:33:47.491Z,-3.36
2022-12-11T17:36:17.396Z,-3.62
2022-12-11T17:38:45.956Z,-3.52
2022-12-11T17:41:20.544Z,-3.30
2022-12-11T17:43:50.410Z,-3.27
2022-12-11T17:46:19.940Z,-3.34
2022-12-11T17:48:50.253Z,-3.36
2022-12-11T17:51:25.007Z,-3.41
2022-12-11T17:53:57.156Z,-3.41
2022-12-11T17:56:29.550Z,-3.88
2022-12-11T17:59:01.070Z,-3.40
2022-12-11T18:01:31.222Z,-3.44
2022-12-11T18:04:02.436Z,-3.38
2022-12-11T18:06:32.893Z,-3.36
2022-12-11T18:09:02.625Z,-3.39
2022-12-11T18:11:34.301Z,-3.41
2022-12-11T18:14:05.310Z,-4.21
2022-12-11T18:16:37.374Z,-3.38
2022-12-11T18:19:08.969Z,-3.36
2022-12-11T18:21:42.800Z,-3.55
2022-12-11T18:24:13.318Z,-3.24
2022-12-11T18:26:44.833Z,-3.66
2022-12-11T18:29:15.048Z,-3.41
2022-12-11T18:31:44.949Z,-3.42
2022-12-11T18:34:13.382Z,-3.78
2022-12-11T18:36:42.632Z,-3.43
2022-12-11T18:39:11.102Z,-3.78
2022-12-11T18:41:40.118Z,-3.59
2022-12-11T18:44:10.302Z,-3.42
2022-12-11T18:46:39.731Z,-3.43
2022-12-11T18:49:08.478Z,-3.39
2022-12-11T18:51:37.732Z,-3.41
2022-12-11T18:54:06.503Z,-3.55
2022-12-11T18:56:34.852Z,-3.57
2022-12-11T18:59:03.475Z,-3.43
2022-12-11T19:01:34.652Z,-3.50
2022-12-11T19:04:07.839Z,-3.50
2022-12-11T19:06:40.127Z,-3.51
2022-12-11T19:09:09.417Z,-3.53
2022-12-11T19:11:40.157Z,-3.59
2022-12-11T19:14:09.140Z,-3.71
2022-12-11T19:16:41.141Z,-3.69
2022-12-11T19:19:12.478Z,-3.75
2022-12-11T19:21:41.777Z,-3.73
2022-12-11T19:24:13.743Z,-3.61
2022-12-11T19:26:42.780Z,-3.92
2022-12-11T19:29:11.552Z,-4.21
2022-12-11T19:31:41.710Z,-3.72
2022-12-11T19:34:10.110Z,-3.73
2022-12-11T19:36:38.926Z,-3.85
2022-12-11T19:39:12.821Z,-4.26
2022-12-11T19:41:44.205Z,-4.09
2022-12-11T19:44:14.863Z,-3.92
2022-12-11T19:46:46.236Z,-3.91
2022-12-11T19:49:16.139Z,-3.94
2022-12-11T19:51:45.857Z,-3.86
2022-12-11T19:54:19.432Z,-3.84
2022-12-11T19:56:48.474Z,-3.93
2022-12-11T19:59:20.462Z,-3.86
2022-12-11T20:01:51.608Z,-3.82
2022-12-11T20:04:22.024Z,-3.82
2022-12-11T20:06:51.777Z,-4.14
2022-12-11T20:09:21.717Z,-4.00
2022-12-11T20:11:52.356Z,-3.82
2022-12-11T20:14:25.644Z,-3.84
2022-12-11T20:17:15.004Z,-3.83
2022-12-11T20:19:45.755Z,-4.00
2022-12-11T20:22:16.157Z,-3.84
2022-12-11T20:24:47.559Z,-4.44
2022-12-11T20:27:17.431Z,-4.06
2022-12-11T20:29:47.548Z,-4.01
2022-12-11T20:32:18.900Z,-4.03
2022-12-11T20:34:48.599Z,-4.06
2022-12-11T20:37:18.796Z,-4.08
2022-12-11T20:39:48.748Z,-4.05
2022-12-11T20:42:18.639Z,-4.18
2022-12-11T20:44:49.361Z,-4.06
2022-12-11T20:47:22.103Z,-4.06
2022-12-11T20:49:52.755Z,-4.01
2022-12-11T20:52:23.591Z,-4.05
2022-12-11T20:54:53.350Z,-3.98
2022-12-11T20:57:23.151Z,-3.94
2022-12-11T20:59:52.751Z,-3.92
2022-12-11T21:02:24.195Z,-3.89
2022-12-11T21:04:53.963Z,-3.90
2022-12-11T21:07:23.806Z,-3.94
2022-12-11T21:09:53.545Z,-4.02
2022-12-11T21:12:29.782Z,-4.00
2022-12-11T21:15:01.206Z,-4.06
2022-12-11T21:17:33.196Z,-4.23
2022-12-11T21:20:03.010Z,-4.07
2022-12-11T21:22:32.951Z,-4.23
2022-12-11T21:25:02.516Z,-4.19
2022-12-11T21:27:31.546Z,-4.29
2022-12-11T21:29:59.830Z,-4.31
2022-12-11T21:32:30.093Z,-4.36
2022-12-11T21:35:01.825Z,-4.41
2022-12-11T21:37:30.470Z,-4.52
2022-12-11T21:40:00.724Z,-4.49
2022-12-11T21:42:29.147Z,-4.54
2022-12-11T21:45:37.569Z,-5.43
2022-12-11T21:47:46.099Z,-4.68
2022-12-11T21:50:15.975Z,-4.74
2022-12-11T21:52:44.642Z,-4.85
2022-12-11T21:55:13.917Z,-5.47
2022-12-11T21:57:42.687Z,-4.98
2022-12-11T22:00:12.730Z,-4.99
2022-12-11T22:02:41.505Z,-4.97
2022-12-11T22:05:11.119Z,-4.93
2022-12-11T22:07:41.321Z,-4.96
2022-12-11T22:10:10.813Z,-4.96
2022-12-11T22:12:39.235Z,-5.29
2022-12-11T22:15:09.418Z,-4.95
2022-12-11T22:17:39.043Z,-4.97
2022-12-11T22:20:08.065Z,-5.09
2022-12-11T22:22:37.030Z,-5.15
2022-12-11T22:25:10.079Z,-4.97
2022-12-11T22:27:38.701Z,-5.31
2022-12-11T22:30:08.421Z,-5.10
2022-12-11T22:32:36.845Z,-5.25
2022-12-11T22:35:06.184Z,-5.19
2022-12-11T22:37:34.900Z,-5.74
2022-12-11T22:40:03.610Z,-5.28
2022-12-11T22:42:33.714Z,-5.29
2022-12-11T22:45:02.049Z,-5.34
2022-12-11T22:47:30.824Z,-5.32
2022-12-11T22:49:59.146Z,-5.36
2022-12-11T22:52:27.521Z,-5.34
2022-12-11T22:54:55.846Z,-5.53
2022-12-11T22:57:24.290Z,-5.70
2022-12-11T22:59:54.465Z,-5.59
2022-12-11T23:02:22.991Z,-5.48
2022-12-11T23:04:51.405Z,-5.60
2022-12-11T23:07:19.789Z,-5.48
2022-12-11T23:09:48.242Z,-5.48
2022-12-11T23:12:16.626Z,-5.44
2022-12-11T23:14:45.056Z,-5.46
2022-12-11T23:17:14.874Z,-5.49
2022-12-11T23:19:43.399Z,-5.53
2022-12-11T23:22:11.748Z,-5.73
2022-12-11T23:24:40.192Z,-5.75
2022-12-11T23:27:09.331Z,-5.74
2022-12-11T23:29:37.734Z,-5.60
2022-12-11T23:32:06.481Z,-5.62
2022-12-11T23:34:36.560Z,-5.72
2022-12-11T23:37:04.981Z,-5.80
2022-12-11T23:39:33.421Z,-5.65
2022-12-11T23:42:01.679Z,-5.77
2022-12-11T23:44:30.083Z,-5.61
2022-12-11T23:46:58.766Z,-5.68
2022-12-11T23:49:27.291Z,-6.12
2022-12-11T23:51:58.026Z,-6.03
2022-12-11T23:54:26.447Z,-6.02
2022-12-11T23:56:55.149Z,-5.54
2022-12-11T23:59:23.493Z,-5.41
